Time;durP1;ratioP1;P1;durP2;ratioP2;P2;SDS_P1;SDS_P2;PMS_P1;PMS_P2;Temp;Humidity;BMP_temperature;BMP_pressure;BME280_temperature;BME280_humidity;BME280_pressure;Samples;Min_cycle;Max_cycle;Signal;HPM_P1;HPM_P2
2023/01/31 00:01:18;;;;;;;23.98;3.70;;;4.40;99.90;;;;;;5074876;28;20052;-69
2023/01/31 00:03:44;;;;;;;26.42;4.20;;;4.30;99.90;;;;;;5074811;28;20079;-69
2023/01/31 00:06:18;;;;;;;24.95;3.78;;;4.30;99.90;;;;;;5075100;28;20055;-69
2023/01/31 00:08:46;;;;;;;28.80;4.07;;;4.30;99.90;;;;;;5074839;28;20107;-69
2023/01/31 00:11:12;;;;;;;20.65;3.38;;;4.20;99.90;;;;;;5074687;28;20040;-69
2023/01/31 00:13:38;;;;;;;32.13;4.55;;;4.20;99.90;;;;;;5074720;28;20044;-69
2023/01/31 00:16:05;;;;;;;22.25;3.88;;;4.20;99.90;;;;;;5074687;28;20098;-69
2023/01/31 00:18:30;;;;;;;33.33;4.50;;;4.20;99.90;;;;;;5074627;28;20047;-69
2023/01/31 00:20:56;;;;;;;28.95;4.05;;;4.20;99.90;;;;;;5074501;28;20049;-69
2023/01/31 00:23:21;;;;;;;26.45;3.83;;;4.20;99.90;;;;;;5074568;28;20054;-69
2023/01/31 00:25:47;;;;;;;24.08;3.33;;;4.10;99.90;;;;;;5075905;28;20550;-69
2023/01/31 00:28:13;;;;;;;22.02;3.80;;;4.20;99.90;;;;;;5074716;28;20551;-69
2023/01/31 00:30:38;;;;;;;21.25;4.03;;;4.10;99.90;;;;;;5074372;28;20040;-69
2023/01/31 00:33:04;;;;;;;23.65;3.75;;;4.10;99.90;;;;;;5075617;28;20072;-69
2023/01/31 00:35:29;;;;;;;21.17;3.70;;;4.00;99.90;;;;;;5074605;28;20105;-69
2023/01/31 00:37:55;;;;;;;26.80;4.20;;;4.10;99.90;;;;;;5074314;28;20232;-69
2023/01/31 00:40:21;;;;;;;20.13;3.35;;;4.00;99.90;;;;;;5074437;28;20049;-69
2023/01/31 00:42:46;;;;;;;22.13;3.25;;;4.00;99.90;;;;;;5074309;28;20124;-69
2023/01/31 00:45:12;;;;;;;23.23;3.95;;;4.00;99.90;;;;;;5074156;28;20407;-69
2023/01/31 00:47:37;;;;;;;19.23;3.63;;;4.00;99.90;;;;;;5074118;28;20037;-69
2023/01/31 00:50:04;;;;;;;23.30;3.42;;;4.00;99.90;;;;;;5073907;28;20123;-69
2023/01/31 00:52:30;;;;;;;17.42;3.55;;;3.90;99.90;;;;;;5074325;28;20098;-69
2023/01/31 00:54:57;;;;;;;22.88;3.47;;;3.90;99.90;;;;;;5074335;28;20140;-69
2023/01/31 00:57:22;;;;;;;22.67;3.45;;;3.90;99.90;;;;;;5073928;28;20080;-69
2023/01/31 00:59:48;;;;;;;25.67;3.25;;;4.00;99.90;;;;;;5073846;28;20056;-69
2023/01/31 01:02:13;;;;;;;20.30;3.85;;;3.90;99.90;;;;;;5073779;28;20119;-69
2023/01/31 01:04:39;;;;;;;24.15;3.97;;;3.90;99.90;;;;;;5073304;28;20058;-69
2023/01/31 01:07:05;;;;;;;20.70;3.58;;;3.90;99.90;;;;;;5073773;28;20044;-69
2023/01/31 01:09:30;;;;;;;16.63;3.05;;;3.90;99.90;;;;;;5073636;28;20044;-69
2023/01/31 01:11:56;;;;;;;18.80;3.17;;;3.90;99.90;;;;;;5073664;28;20045;-69
2023/01/31 01:14:21;;;;;;;21.70;3.25;;;3.90;99.90;;;;;;5073889;28;20046;-69
2023/01/31 01:16:47;;;;;;;22.02;3.40;;;3.80;99.90;;;;;;5073594;28;20542;-69
2023/01/31 01:19:17;;;;;;;25.38;3.10;;;3.80;99.90;;;;;;5073553;28;20089;-69
2023/01/31 01:21:43;;;;;;;22.13;2.90;;;3.80;99.90;;;;;;5073392;28;20094;-69
2023/01/31 01:24:15;;;;;;;22.02;3.72;;;3.80;99.90;;;;;;5073396;28;20036;-69
2023/01/31 01:26:42;;;;;;;20.00;3.17;;;3.70;99.90;;;;;;5073635;28;20033;-69
2023/01/31 01:29:08;;;;;;;20.73;3.22;;;3.70;99.90;;;;;;5073330;28;20521;-69
2023/01/31 01:31:33;;;;;;;19.65;3.25;;;3.70;99.90;;;;;;5073437;28;20036;-69
2023/01/31 01:34:04;;;;;;;18.27;2.80;;;3.70;99.90;;;;;;5073230;28;20040;-69
2023/01/31 01:36:32;;;;;;;22.15;3.60;;;3.80;99.90;;;;;;5073499;28;20041;-69
2023/01/31 01:38:58;;;;;;;17.35;3.30;;;3.80;99.90;;;;;;5073140;28;20041;-69
2023/01/31 01:41:24;;;;;;;20.20;3.70;;;3.80;99.90;;;;;;5072955;28;20044;-69
2023/01/31 01:43:55;;;;;;;28.10;3.08;;;3.80;99.90;;;;;;5072970;28;20052;-69
2023/01/31 01:46:30;;;;;;;23.95;3.28;;;3.80;99.90;;;;;;5072954;28;20048;-69
2023/01/31 01:49:11;;;;;;;22.98;3.42;;;3.80;99.90;;;;;;5072963;28;20087;-69
2023/01/31 01:51:38;;;;;;;19.10;2.70;;;3.80;99.90;;;;;;5073007;28;20042;-69
2023/01/31 01:54:08;;;;;;;20.50;3.35;;;3.80;99.90;;;;;;5073068;28;20032;-69
2023/01/31 01:56:38;;;;;;;28.35;3.65;;;3.80;99.90;;;;;;5072795;28;20120;-69
2023/01/31 01:59:15;;;;;;;18.33;2.85;;;3.70;99.90;;;;;;5072740;28;20040;-69
2023/01/31 02:01:42;;;;;;;17.20;3.03;;;3.70;99.90;;;;;;5072783;28;20413;-69
2023/01/31 02:04:14;;;;;;;13.57;3.03;;;3.70;99.90;;;;;;5072626;28;20072;-69
2023/01/31 02:06:40;;;;;;;17.10;2.65;;;3.70;99.90;;;;;;5072909;28;20040;-69
2023/01/31 02:09:11;;;;;;;23.15;3.55;;;3.60;99.90;;;;;;5073813;28;20386;-69
2023/01/31 02:11:37;;;;;;;24.95;2.88;;;3.60;99.90;;;;;;5072446;28;20040;-69
2023/01/31 02:14:09;;;;;;;24.67;3.35;;;3.50;99.90;;;;;;5072469;28;20081;-69
2023/01/31 02:16:35;;;;;;;15.57;2.90;;;3.50;99.90;;;;;;5071621;28;20115;-69
2023/01/31 02:19:01;;;;;;;24.88;3.13;;;3.50;99.90;;;;;;5073605;28;20117;-69
2023/01/31 02:21:45;;;;;;;19.77;2.95;;;3.50;99.90;;;;;;5072267;28;20036;-69
2023/01/31 02:24:48;;;;;;;24.83;3.08;;;3.40;99.90;;;;;;5073557;28;20536;-69
2023/01/31 02:27:41;;;;;;;32.25;5.53;;;3.40;99.90;;;;;;5072273;28;20079;-69
2023/01/31 02:30:25;;;;;;;15.05;2.63;;;3.40;99.90;;;;;;5072213;28;20054;-69
2023/01/31 02:33:12;;;;;;;21.25;3.42;;;3.40;99.90;;;;;;5072398;28;20053;-69
2023/01/31 02:35:47;;;;;;;22.95;2.85;;;3.40;99.90;;;;;;5074037;28;20394;-69
2023/01/31 02:38:24;;;;;;;21.27;2.65;;;3.40;99.90;;;;;;5072066;28;20409;-69
2023/01/31 02:41:07;;;;;;;19.63;3.15;;;3.40;99.90;;;;;;5072016;28;20048;-69
2023/01/31 02:46:56;;;;;;;16.45;3.35;;;3.40;99.90;;;;;;5072247;28;20386;-69
2023/01/31 02:49:33;;;;;;;19.75;3.08;;;3.40;99.90;;;;;;5072487;28;20037;-69
2023/01/31 02:52:15;;;;;;;23.15;3.33;;;3.50;99.90;;;;;;5072125;28;20044;-69
2023/01/31 02:57:31;;;;;;;17.77;2.70;;;3.60;99.90;;;;;;5071919;28;20060;-69
2023/01/31 02:59:57;;;;;;;21.25;2.65;;;3.60;99.90;;;;;;5071795;28;20579;-69
2023/01/31 03:02:25;;;;;;;20.88;3.75;;;3.60;99.90;;;;;;5071747;28;20044;-69
2023/01/31 03:04:50;;;;;;;17.63;3.25;;;3.60;99.90;;;;;;5072021;28;20135;-69
2023/01/31 03:07:25;;;;;;;24.85;3.40;;;3.60;99.90;;;;;;5072065;28;20127;-69
2023/01/31 03:09:51;;;;;;;16.20;2.63;;;3.60;99.90;;;;;;5071990;28;20037;-69
2023/01/31 03:12:20;;;;;;;19.73;2.47;;;3.60;99.90;;;;;;5072001;28;20400;-69
2023/01/31 03:15:22;;;;;;;22.58;3.83;;;3.50;99.90;;;;;;5071963;28;20040;-69
2023/01/31 03:18:14;;;;;;;21.85;2.83;;;3.60;99.90;;;;;;5071732;28;20444;-69
2023/01/31 03:21:01;;;;;;;20.85;3.53;;;3.60;99.90;;;;;;5071600;28;20049;-69
2023/01/31 03:23:30;;;;;;;24.70;3.00;;;3.70;99.90;;;;;;5071602;28;20053;-69
2023/01/31 03:26:00;;;;;;;18.75;3.25;;;3.70;99.90;;;;;;5071588;28;20037;-69
2023/01/31 03:28:35;;;;;;;17.60;3.13;;;3.80;99.90;;;;;;5074796;28;20054;-69
2023/01/31 03:31:07;;;;;;;20.67;3.40;;;3.70;99.90;;;;;;5075603;28;20386;-69
2023/01/31 03:33:37;;;;;;;24.85;3.40;;;3.90;99.90;;;;;;5075520;28;20055;-69
2023/01/31 03:36:14;;;;;;;22.05;3.03;;;3.80;99.90;;;;;;5077038;28;20048;-69
2023/01/31 03:38:53;;;;;;;26.60;3.78;;;3.90;99.90;;;;;;5075726;28;20040;-69
2023/01/31 03:41:23;;;;;;;25.88;3.55;;;3.90;99.90;;;;;;5075366;28;20076;-69
2023/01/31 03:44:04;;;;;;;24.08;3.00;;;4.00;99.90;;;;;;5075231;28;20409;-69
2023/01/31 03:46:39;;;;;;;21.95;3.35;;;4.00;99.90;;;;;;5075314;28;20055;-69
2023/01/31 03:49:09;;;;;;;21.83;3.63;;;4.10;99.90;;;;;;5075223;28;20382;-69
2023/01/31 03:51:38;;;;;;;23.80;3.20;;;4.10;99.90;;;;;;5075314;28;20425;-69
2023/01/31 03:54:08;;;;;;;20.35;2.90;;;4.10;99.90;;;;;;5076601;28;20040;-69
2023/01/31 03:56:39;;;;;;;23.60;3.08;;;4.10;99.90;;;;;;5075346;28;20040;-69
2023/01/31 03:59:12;;;;;;;27.48;3.60;;;4.20;99.90;;;;;;5076277;28;20041;-69
2023/01/31 04:01:43;;;;;;;17.25;3.20;;;4.20;99.90;;;;;;5074971;28;20038;-69
2023/01/31 04:04:24;;;;;;;20.38;3.33;;;4.20;99.90;;;;;;5074997;28;20115;-69
2023/01/31 04:06:50;;;;;;;22.38;3.75;;;4.20;99.90;;;;;;5074933;28;20041;-69
2023/01/31 04:09:15;;;;;;;20.13;4.03;;;4.20;99.90;;;;;;5076123;28;20044;-69
2023/01/31 04:11:41;;;;;;;19.30;3.45;;;4.30;99.90;;;;;;5074685;28;20117;-69
2023/01/31 04:14:08;;;;;;;19.70;3.65;;;4.30;99.90;;;;;;5074795;28;20036;-69
2023/01/31 04:16:33;;;;;;;30.70;3.80;;;4.30;99.90;;;;;;5074701;28;20044;-69
2023/01/31 04:18:59;;;;;;;18.77;3.08;;;4.30;99.90;;;;;;5074998;28;20036;-69
2023/01/31 04:21:25;;;;;;;22.52;3.88;;;4.30;99.90;;;;;;5074850;28;20505;-69
2023/01/31 04:23:51;;;;;;;25.98;3.20;;;4.30;99.90;;;;;;5074543;28;20417;-69
2023/01/31 04:26:16;;;;;;;15.60;3.08;;;4.20;99.90;;;;;;5074547;28;20379;-69
2023/01/31 04:28:42;;;;;;;24.38;3.95;;;4.30;99.90;;;;;;5074795;28;20128;-69
2023/01/31 04:31:07;;;;;;;23.48;3.50;;;4.30;99.90;;;;;;5074413;28;20493;-69
2023/01/31 04:33:33;;;;;;;18.98;3.30;;;4.30;99.90;;;;;;5074405;28;20045;-69
2023/01/31 04:35:58;;;;;;;25.73;4.10;;;4.30;99.90;;;;;;5074400;28;20040;-69
2023/01/31 04:38:24;;;;;;;21.33;3.72;;;4.30;99.90;;;;;;5073896;28;20040;-69
2023/01/31 04:40:50;;;;;;;23.23;4.50;;;4.40;99.90;;;;;;5074049;28;20414;-69
2023/01/31 04:43:16;;;;;;;30.77;4.32;;;4.40;99.90;;;;;;5074166;28;20048;-69
2023/01/31 04:45:41;;;;;;;26.80;3.45;;;4.40;99.90;;;;;;5075724;28;20032;-69
2023/01/31 04:48:07;;;;;;;29.73;4.32;;;4.40;99.90;;;;;;5074179;28;20127;-69
2023/01/31 04:50:33;;;;;;;24.10;4.53;;;4.50;99.90;;;;;;5073919;28;20413;-69
2023/01/31 04:52:59;;;;;;;23.55;4.43;;;4.50;99.90;;;;;;5074060;28;20040;-69
2023/01/31 04:55:26;;;;;;;25.77;3.97;;;4.50;99.90;;;;;;5074057;28;20042;-69
2023/01/31 04:57:52;;;;;;;22.67;3.65;;;4.50;99.90;;;;;;5074002;28;20045;-69
2023/01/31 05:00:18;;;;;;;25.50;4.47;;;4.60;99.90;;;;;;5073893;28;20040;-69
2023/01/31 05:02:44;;;;;;;23.48;4.13;;;4.60;99.90;;;;;;5073804;28;20040;-69
2023/01/31 05:05:11;;;;;;;26.30;3.15;;;4.60;99.90;;;;;;5073865;28;20039;-69
2023/01/31 05:07:37;;;;;;;34.25;4.22;;;4.60;99.90;;;;;;5073819;28;20044;-69
2023/01/31 05:10:03;;;;;;;27.02;4.45;;;4.60;99.90;;;;;;5073960;28;20036;-69
2023/01/31 05:12:30;;;;;;;28.30;4.40;;;4.60;99.90;;;;;;5073814;28;20416;-69
2023/01/31 05:14:55;;;;;;;21.98;3.88;;;4.60;99.90;;;;;;5073645;28;20443;-69
2023/01/31 05:17:28;;;;;;;31.33;4.63;;;4.60;99.90;;;;;;5075131;28;20041;-69
2023/01/31 05:19:55;;;;;;;24.83;3.88;;;4.60;99.90;;;;;;5073772;28;20073;-69
2023/01/31 05:22:21;;;;;;;26.90;5.25;;;4.60;99.90;;;;;;5073403;28;20048;-69
2023/01/31 05:24:48;;;;;;;32.75;4.13;;;4.60;99.90;;;;;;5073415;28;20040;-69
2023/01/31 05:27:14;;;;;;;32.90;4.88;;;4.60;99.90;;;;;;5073379;28;20045;-69
2023/01/31 05:29:39;;;;;;;30.98;6.05;;;4.70;99.90;;;;;;5074766;28;20043;-69
2023/01/31 05:32:05;;;;;;;34.45;4.57;;;4.70;99.90;;;;;;5073295;28;20445;-69
2023/01/31 05:34:32;;;;;;;26.77;4.43;;;4.70;99.90;;;;;;5073240;28;20048;-69
2023/01/31 05:36:58;;;;;;;29.92;5.32;;;4.70;99.90;;;;;;5073222;28;20044;-69
2023/01/31 05:39:24;;;;;;;28.95;6.70;;;4.70;99.90;;;;;;5073097;28;20037;-69
2023/01/31 05:41:49;;;;;;;22.23;5.18;;;4.70;99.90;;;;;;5073267;28;20048;-69
2023/01/31 05:44:15;;;;;;;31.88;5.07;;;4.70;99.90;;;;;;5073057;28;20456;-69
2023/01/31 05:46:41;;;;;;;28.02;4.80;;;4.80;99.90;;;;;;5074481;28;20055;-69
2023/01/31 05:49:07;;;;;;;28.98;4.68;;;4.80;99.90;;;;;;5072909;28;20041;-69
2023/01/31 05:51:32;;;;;;;35.58;5.38;;;4.70;99.90;;;;;;5072801;28;20084;-69
2023/01/31 05:53:58;;;;;;;32.42;5.90;;;4.70;99.90;;;;;;5072870;28;20099;-69
2023/01/31 05:56:24;;;;;;;28.90;5.35;;;4.70;99.90;;;;;;5072813;28;20040;-69
2023/01/31 05:58:50;;;;;;;30.55;4.82;;;4.70;99.90;;;;;;5072755;28;20044;-69
2023/01/31 06:01:21;;;;;;;33.17;5.13;;;4.70;99.90;;;;;;5072911;28;20485;-69
2023/01/31 06:03:47;;;;;;;27.63;5.65;;;4.80;99.90;;;;;;5072555;28;20049;-69
2023/01/31 06:06:13;;;;;;;31.40;4.95;;;4.70;99.90;;;;;;5072584;28;20055;-69
2023/01/31 06:08:40;;;;;;;24.65;4.55;;;4.70;99.90;;;;;;5072553;28;20102;-69
2023/01/31 06:11:07;;;;;;;25.73;4.43;;;4.70;99.90;;;;;;5072430;28;20127;-69
2023/01/31 06:13:33;;;;;;;30.13;6.10;;;4.70;99.90;;;;;;5072475;28;20089;-69
2023/01/31 06:15:59;;;;;;;31.20;5.05;;;4.70;99.90;;;;;;5072661;28;20048;-69
2023/01/31 06:18:25;;;;;;;25.20;5.50;;;4.70;99.90;;;;;;5072393;28;20046;-69
2023/01/31 06:20:51;;;;;;;29.70;5.50;;;4.70;99.90;;;;;;5073521;28;20448;-69
2023/01/31 06:23:17;;;;;;;31.13;4.93;;;4.70;99.90;;;;;;5072251;28;20044;-69
2023/01/31 06:25:43;;;;;;;32.30;5.25;;;4.80;99.90;;;;;;5055646;28;20090;-69
2023/01/31 06:28:09;;;;;;;31.35;5.70;;;4.80;99.90;;;;;;5072250;28;20402;-69
2023/01/31 06:30:35;;;;;;;30.73;5.63;;;4.80;99.90;;;;;;5072154;28;20073;-69
2023/01/31 06:33:01;;;;;;;35.30;6.43;;;4.90;99.90;;;;;;5073649;28;20124;-69
2023/01/31 06:35:26;;;;;;;31.67;5.88;;;4.90;99.90;;;;;;5072171;28;20098;-69
2023/01/31 06:37:54;;;;;;;28.05;5.13;;;4.90;99.90;;;;;;5072391;28;20106;-69
2023/01/31 06:40:20;;;;;;;33.90;5.45;;;4.90;99.90;;;;;;5071970;28;20124;-69
2023/01/31 06:42:45;;;;;;;30.55;6.25;;;4.90;99.90;;;;;;5055281;28;20119;-69
2023/01/31 06:45:11;;;;;;;30.58;5.35;;;4.90;99.90;;;;;;5072293;28;20037;-69
2023/01/31 06:47:36;;;;;;;33.85;5.88;;;5.00;99.90;;;;;;5072056;28;20542;-69
2023/01/31 06:50:03;;;;;;;32.28;5.90;;;5.10;99.90;;;;;;5071793;28;20463;-69
2023/01/31 06:52:28;;;;;;;28.17;4.82;;;5.10;99.90;;;;;;5072026;28;20076;-69
2023/01/31 06:54:54;;;;;;;26.75;5.57;;;5.20;99.90;;;;;;5071942;28;20083;-69
2023/01/31 06:57:19;;;;;;;36.20;6.65;;;5.20;99.90;;;;;;5071908;28;20044;-69
2023/01/31 06:59:45;;;;;;;28.88;5.80;;;5.20;99.90;;;;;;5071791;28;20117;-69
2023/01/31 07:02:11;;;;;;;25.67;5.78;;;5.30;99.90;;;;;;5071551;28;20041;-69
2023/01/31 07:04:36;;;;;;;25.40;5.75;;;5.30;99.90;;;;;;5071769;28;20379;-69
2023/01/31 07:07:02;;;;;;;28.80;5.10;;;5.40;99.90;;;;;;5071771;28;20037;-69
2023/01/31 07:09:28;;;;;;;33.42;5.70;;;5.40;99.90;;;;;;5071682;28;20112;-69
2023/01/31 07:11:53;;;;;;;26.75;5.47;;;5.40;99.90;;;;;;5071994;28;20036;-69
2023/01/31 07:14:19;;;;;;;33.00;5.65;;;5.40;99.90;;;;;;5071724;28;20044;-69
2023/01/31 07:16:45;;;;;;;27.83;5.95;;;5.50;99.90;;;;;;5071695;28;20059;-69
2023/01/31 07:19:10;;;;;;;29.25;5.00;;;5.50;99.90;;;;;;5071952;28;20037;-70
2023/01/31 07:21:36;;;;;;;25.27;5.15;;;5.60;99.90;;;;;;5071566;28;20561;-70
2023/01/31 07:24:02;;;;;;;31.40;5.45;;;5.60;99.90;;;;;;5071514;28;20040;-70
2023/01/31 07:26:28;;;;;;;27.38;5.25;;;5.60;99.90;;;;;;5071597;28;20089;-70
2023/01/31 07:28:54;;;;;;;25.52;4.82;;;5.70;99.90;;;;;;5071585;28;20115;-69
2023/01/31 07:31:20;;;;;;;30.23;4.47;;;5.70;99.90;;;;;;5071765;28;20036;-69
2023/01/31 07:33:45;;;;;;;22.02;4.70;;;5.70;99.90;;;;;;5071526;28;20489;-69
2023/01/31 07:36:13;;;;;;;29.13;5.45;;;5.70;99.90;;;;;;5071471;28;20405;-69
2023/01/31 07:38:39;;;;;;;30.17;5.18;;;5.70;99.90;;;;;;5054741;28;20075;-69
2023/01/31 07:41:07;;;;;;;22.63;4.35;;;5.80;99.90;;;;;;5071379;28;20045;-69
2023/01/31 07:43:33;;;;;;;24.25;4.35;;;5.80;99.90;;;;;;5072577;28;20045;-69
2023/01/31 07:45:58;;;;;;;27.30;4.97;;;5.80;99.90;;;;;;5072990;28;20163;-69
2023/01/31 07:48:24;;;;;;;28.25;4.70;;;5.80;99.90;;;;;;5071365;28;20486;-69
2023/01/31 07:50:52;;;;;;;25.63;5.38;;;5.80;99.90;;;;;;5071141;28;20033;-69
2023/01/31 07:53:18;;;;;;;29.63;5.25;;;5.80;99.90;;;;;;5071595;28;20051;-69
2023/01/31 07:55:46;;;;;;;23.02;4.18;;;5.80;99.90;;;;;;5071599;28;20103;-69
2023/01/31 07:58:15;;;;;;;30.83;4.97;;;5.80;99.90;;;;;;5071524;28;20052;-69
2023/01/31 08:03:34;;;;;;;28.00;4.53;;;5.80;99.90;;;;;;5071160;28;20049;-69
2023/01/31 08:06:10;;;;;;;21.25;3.75;;;5.80;99.90;;;;;;5071516;28;20044;-69
2023/01/31 08:08:37;;;;;;;19.27;4.20;;;5.80;99.90;;;;;;5071197;28;20037;-69
2023/01/31 08:11:06;;;;;;;23.70;3.80;;;5.80;99.90;;;;;;5071065;28;20084;-69
2023/01/31 08:13:34;;;;;;;18.25;4.05;;;5.90;99.90;;;;;;5071580;28;20040;-69
2023/01/31 08:16:00;;;;;;;26.35;4.72;;;5.90;99.90;;;;;;5074988;28;20048;-69
2023/01/31 08:18:25;;;;;;;21.38;3.75;;;5.90;99.90;;;;;;5076272;28;20090;-69
2023/01/31 08:20:51;;;;;;;18.98;3.67;;;5.90;99.90;;;;;;5074556;28;20044;-69
2023/01/31 08:23:17;;;;;;;22.63;4.20;;;5.90;99.90;;;;;;5074678;28;20102;-69
2023/01/31 08:25:43;;;;;;;23.15;4.43;;;5.90;99.90;;;;;;5074598;28;20477;-69
2023/01/31 08:28:08;;;;;;;20.45;4.25;;;5.90;99.90;;;;;;5074467;28;20120;-69
2023/01/31 08:30:38;;;;;;;22.13;3.88;;;6.00;99.90;;;;;;5074466;28;20041;-69
2023/01/31 08:33:03;;;;;;;21.27;3.53;;;6.00;99.90;;;;;;5074675;28;20045;-69
2023/01/31 08:35:29;;;;;;;19.75;3.10;;;6.00;99.90;;;;;;5074419;28;20047;-69
2023/01/31 08:37:54;;;;;;;18.42;3.50;;;6.00;99.90;;;;;;5074379;28;20055;-69
2023/01/31 08:40:20;;;;;;;18.65;4.05;;;6.10;99.90;;;;;;5074467;28;20060;-69
2023/01/31 08:42:56;;;;;;;19.05;3.80;;;6.10;99.90;;;;;;5074283;28;20048;-69
2023/01/31 08:45:22;;;;;;;19.05;5.28;;;6.10;99.90;;;;;;5057588;28;20040;-69
2023/01/31 08:47:56;;;;;;;19.50;3.92;;;6.10;99.90;;;;;;5074185;28;20040;-69
2023/01/31 08:50:23;;;;;;;18.67;3.50;;;6.20;99.90;;;;;;5073873;28;20618;-69
2023/01/31 08:53:00;;;;;;;19.35;3.90;;;6.20;99.90;;;;;;5074369;28;20094;-69
2023/01/31 08:55:27;;;;;;;23.05;4.00;;;6.20;99.90;;;;;;5074272;28;20133;-69
2023/01/31 08:57:53;;;;;;;20.75;4.40;;;6.30;99.90;;;;;;5074006;28;20404;-69
2023/01/31 09:00:20;;;;;;;22.35;4.35;;;6.20;99.90;;;;;;5074207;28;20044;-69
2023/01/31 09:02:57;;;;;;;21.52;4.10;;;6.20;99.90;;;;;;5075055;28;20045;-70
2023/01/31 09:05:24;;;;;;;20.23;3.90;;;6.30;99.90;;;;;;5073880;28;20047;-69
2023/01/31 09:07:49;;;;;;;25.27;4.60;;;6.30;99.90;;;;;;5073852;28;20127;-69
2023/01/31 09:10:19;;;;;;;15.75;3.40;;;6.30;99.90;;;;;;5074008;28;20132;-69
2023/01/31 09:12:45;;;;;;;21.48;3.65;;;6.30;99.90;;;;;;5073687;28;20101;-69
2023/01/31 09:15:11;;;;;;;23.55;4.28;;;6.30;99.90;;;;;;5073656;28;20048;-69
2023/01/31 09:17:38;;;;;;;19.88;4.30;;;6.30;99.90;;;;;;5073634;28;20086;-69
2023/01/31 09:20:06;;;;;;;23.17;4.78;;;6.30;99.90;;;;;;5073501;28;20044;-69
2023/01/31 09:22:33;;;;;;;20.55;3.65;;;6.30;99.90;;;;;;5073432;28;20455;-69
2023/01/31 09:24:59;;;;;;;22.08;3.88;;;6.40;99.90;;;;;;5073346;28;20045;-69
2023/01/31 09:27:25;;;;;;;20.45;3.70;;;6.40;99.90;;;;;;5056684;28;20430;-69
2023/01/31 09:29:51;;;;;;;22.85;3.83;;;6.40;99.90;;;;;;5073286;28;20079;-69
2023/01/31 09:32:16;;;;;;;20.05;3.67;;;6.40;99.90;;;;;;5073337;28;20040;-69
2023/01/31 09:34:42;;;;;;;15.10;3.38;;;6.40;99.90;;;;;;5073295;28;20048;-69
2023/01/31 09:37:07;;;;;;;20.02;4.00;;;6.40;99.90;;;;;;5073544;28;20043;-69
2023/01/31 09:39:33;;;;;;;18.55;3.83;;;6.40;99.90;;;;;;5073080;28;20051;-69
2023/01/31 09:42:17;;;;;;;24.25;3.95;;;6.40;99.90;;;;;;5073323;28;20052;-69
2023/01/31 09:44:50;;;;;;;21.05;4.30;;;6.50;99.90;;;;;;5073075;28;20033;-69
2023/01/31 09:47:27;;;;;;;21.58;3.92;;;6.50;99.90;;;;;;5073075;28;20052;-70
2023/01/31 09:50:39;;;;;;;23.23;4.93;;;6.50;99.90;;;;;;5073040;28;20044;-69
2023/01/31 09:53:04;;;;;;;23.40;4.68;;;6.60;99.90;;;;;;5054556;28;20052;-69
2023/01/31 09:55:54;;;;;;;27.95;4.35;;;6.60;99.90;;;;;;5072853;28;20051;-69
2023/01/31 09:58:43;;;;;;;21.10;4.70;;;6.60;99.90;;;;;;5073075;28;20501;-69
2023/01/31 10:01:37;;;;;;;20.08;4.10;;;6.60;99.90;;;;;;5072678;28;20498;-69
2023/01/31 10:04:15;;;;;;;24.38;4.40;;;6.60;99.90;;;;;;5067455;28;20056;-69
2023/01/31 10:07:14;;;;;;;26.63;4.47;;;6.70;99.90;;;;;;5072615;28;20059;-69
2023/01/31 10:10:04;;;;;;;22.15;4.00;;;6.70;99.90;;;;;;5072541;28;20124;-69
2023/01/31 10:12:41;;;;;;;23.20;4.65;;;6.70;99.90;;;;;;5072602;28;20071;-70
2023/01/31 10:15:21;;;;;;;22.15;4.70;;;6.70;99.90;;;;;;5072767;28;20125;-70
2023/01/31 10:18:03;;;;;;;25.35;4.80;;;6.60;99.90;;;;;;5072469;28;20036;-70
2023/01/31 10:20:51;;;;;;;22.45;4.45;;;6.70;99.90;;;;;;5072792;28;20048;-70
2023/01/31 10:23:43;;;;;;;22.95;4.20;;;6.70;99.90;;;;;;5073476;28;20557;-70
2023/01/31 10:26:21;;;;;;;21.83;4.85;;;6.70;99.90;;;;;;5072386;28;20065;-70
2023/01/31 10:28:53;;;;;;;24.60;4.88;;;6.70;99.90;;;;;;5072318;28;20086;-69
2023/01/31 10:31:43;;;;;;;36.72;5.50;;;6.70;99.90;;;;;;5073472;28;20047;-69
2023/01/31 10:34:18;;;;;;;22.80;4.45;;;6.70;99.90;;;;;;5072277;28;20090;-69
2023/01/31 10:37:04;;;;;;;23.42;4.43;;;6.80;99.90;;;;;;5071474;28;20040;-69
2023/01/31 10:39:32;;;;;;;30.52;5.72;;;6.80;99.90;;;;;;5072372;28;20109;-70
2023/01/31 10:42:01;;;;;;;19.08;4.60;;;6.80;99.90;;;;;;5072295;28;20048;-69
2023/01/31 10:44:52;;;;;;;22.73;4.28;;;6.90;99.90;;;;;;5072320;28;20037;-70
2023/01/31 10:47:20;;;;;;;18.20;3.67;;;6.90;99.90;;;;;;5072341;28;20556;-70
2023/01/31 10:49:49;;;;;;;20.90;4.30;;;6.90;99.90;;;;;;5071788;28;20044;-70
2023/01/31 10:52:45;;;;;;;19.38;4.60;;;6.90;99.90;;;;;;5072046;28;20115;-70
2023/01/31 10:55:39;;;;;;;23.15;4.30;;;7.00;99.90;;;;;;5072045;28;20128;-70
2023/01/31 10:58:16;;;;;;;26.58;4.53;;;6.90;99.90;;;;;;5072001;28;20132;-70
2023/01/31 11:00:42;;;;;;;26.00;5.05;;;6.90;99.90;;;;;;5072277;28;20507;-70
2023/01/31 11:03:11;;;;;;;23.27;4.38;;;6.80;99.90;;;;;;5071941;28;20094;-70
2023/01/31 11:05:50;;;;;;;25.10;4.78;;;6.80;99.90;;;;;;5071794;28;20459;-70
2023/01/31 11:08:53;;;;;;;20.55;4.15;;;6.80;99.90;;;;;;5071835;28;20045;-70
2023/01/31 11:11:21;;;;;;;21.88;4.13;;;6.90;99.90;;;;;;5071744;28;20383;-70
2023/01/31 11:14:05;;;;;;;25.80;4.55;;;6.80;99.90;;;;;;5071896;28;20051;-70
2023/01/31 11:16:32;;;;;;;;;;;6.90;99.90;;;;;;5072152;28;20075;-70
2023/01/31 11:19:00;;;;;;;24.23;4.75;;;6.80;99.90;;;;;;5071658;28;19916;-70
2023/01/31 11:21:33;;;;;;;27.60;4.30;;;6.90;99.90;;;;;;5071603;28;20578;-69
2023/01/31 11:24:05;;;;;;;26.33;5.00;;;6.90;99.90;;;;;;5071664;28;20041;-69
2023/01/31 11:26:36;;;;;;;27.52;4.50;;;6.90;99.90;;;;;;5071652;28;20420;-69
2023/01/31 11:29:16;;;;;;;22.70;3.60;;;6.90;99.90;;;;;;5071927;28;20047;-69
2023/01/31 11:31:46;;;;;;;17.60;3.85;;;6.90;99.90;;;;;;5072315;28;20052;-69
2023/01/31 11:34:24;;;;;;;26.42;4.65;;;6.90;99.90;;;;;;5071498;28;20447;-69
2023/01/31 11:36:50;;;;;;;26.00;4.15;;;6.90;99.90;;;;;;5072502;28;20041;-69
2023/01/31 11:39:53;;;;;;;25.50;4.22;;;6.90;99.90;;;;;;5071767;28;20071;-69
2023/01/31 11:42:18;;;;;;;27.92;4.03;;;7.00;99.90;;;;;;5072359;28;20044;-69
2023/01/31 11:45:01;;;;;;;24.30;4.22;;;6.90;99.90;;;;;;5071423;28;20521;-69
2023/01/31 11:47:37;;;;;;;26.63;4.00;;;7.00;99.90;;;;;;5072204;28;20046;-69
2023/01/31 11:50:03;;;;;;;26.48;4.30;;;7.00;99.90;;;;;;5075297;28;20157;-69
2023/01/31 11:52:33;;;;;;;21.35;4.30;;;7.00;99.90;;;;;;5075277;28;20509;-69
2023/01/31 11:55:07;;;;;;;21.60;3.83;;;7.00;99.90;;;;;;5075128;28;20045;-69
2023/01/31 11:57:35;;;;;;;19.98;3.97;;;7.00;99.90;;;;;;5058435;28;20068;-69
2023/01/31 12:00:05;;;;;;;26.23;4.38;;;7.00;99.90;;;;;;5076265;28;20047;-69
2023/01/31 12:02:40;;;;;;;27.33;4.03;;;7.00;99.90;;;;;;5075113;28;20049;-69
2023/01/31 12:05:16;;;;;;;28.10;3.95;;;7.00;99.90;;;;;;5076469;28;20036;-69
2023/01/31 12:07:54;;;;;;;21.77;4.13;;;7.10;99.90;;;;;;5074861;28;20048;-69
2023/01/31 12:10:40;;;;;;;20.70;3.47;;;7.20;99.90;;;;;;5074814;28;20494;-69
2023/01/31 12:13:18;;;;;;;25.00;4.28;;;7.20;99.90;;;;;;5074854;28;20405;-69
2023/01/31 12:16:00;;;;;;;19.40;3.65;;;7.20;99.90;;;;;;5074826;28;20123;-69
2023/01/31 12:18:54;;;;;;;16.10;3.10;;;7.30;99.90;;;;;;5075031;28;20052;-69
2023/01/31 12:21:19;;;;;;;;;;;7.30;99.90;;;;;;5075109;28;20045;-69
2023/01/31 12:24:22;;;;;;;18.52;3.30;;;7.40;99.90;;;;;;5074685;28;19926;-69
2023/01/31 12:27:16;;;;;;;18.50;3.30;;;7.40;99.90;;;;;;5074796;28;20040;-69
2023/01/31 12:29:54;;;;;;;25.05;3.67;;;7.50;99.90;;;;;;5074763;28;20267;-69
2023/01/31 12:32:38;;;;;;;22.40;4.15;;;7.60;99.90;;;;;;5074905;28;20044;-69
2023/01/31 12:35:26;;;;;;;20.08;3.88;;;7.60;99.90;;;;;;5074758;28;20547;-69
2023/01/31 12:38:14;;;;;;;22.10;3.60;;;7.70;99.90;;;;;;5074721;28;20040;-69
2023/01/31 12:41:05;;;;;;;23.33;3.10;;;7.70;99.90;;;;;;5074356;28;20048;-69
2023/01/31 12:43:47;;;;;;;19.95;3.72;;;7.80;99.90;;;;;;5075802;28;20497;-69
2023/01/31 12:46:51;;;;;;;16.52;2.72;;;7.80;99.90;;;;;;5074542;28;20040;-69
2023/01/31 12:49:54;;;;;;;17.70;2.95;;;7.90;99.90;;;;;;5074501;28;20047;-69
2023/01/31 12:52:30;;;;;;;22.50;3.37;;;7.90;99.90;;;;;;5074178;28;20093;-69
2023/01/31 12:55:31;;;;;;;19.35;3.20;;;8.00;99.90;;;;;;5075650;28;20032;-69
2023/01/31 12:58:18;;;;;;;15.75;3.50;;;8.20;99.90;;;;;;5074037;28;20484;-69
2023/01/31 13:01:08;;;;;;;22.85;3.70;;;8.20;99.90;;;;;;5073153;28;20044;-69
2023/01/31 13:03:59;;;;;;;17.77;3.85;;;8.20;99.90;;;;;;5073882;28;20524;-69
2023/01/31 13:06:33;;;;;;;18.17;3.05;;;8.30;99.90;;;;;;5073887;28;20094;-69
2023/01/31 13:09:06;;;;;;;22.02;3.90;;;8.20;99.90;;;;;;5074137;28;20063;-69
2023/01/31 13:11:36;;;;;;;14.05;2.90;;;8.60;99.90;;;;;;5073751;28;20040;-69
2023/01/31 13:14:05;;;;;;;13.85;2.65;;;9.20;99.90;;;;;;5073748;28;20139;-69
2023/01/31 13:16:34;;;;;;;17.30;3.08;;;9.40;99.90;;;;;;5073661;28;20040;-69
2023/01/31 13:19:05;;;;;;;16.15;3.08;;;9.30;99.90;;;;;;5073650;28;20047;-69